sensor_id;sensor_type;location;lat;lon;timestamp;temperature;humidity
3051;DHT22;1535;51.098;6.414;2023-05-07T00:01:42;15.30;99.90
3051;DHT22;1535;51.098;6.414;2023-05-07T00:04:09;15.30;99.90
3051;DHT22;1535;51.098;6.414;2023-05-07T00:06:37;15.30;99.90
3051;DHT22;1535;51.098;6.414;2023-05-07T00:09:05;15.30;99.90
3051;DHT22;1535;51.098;6.414;2023-05-07T00:11:33;15.30;99.90
3051;DHT22;1535;51.098;6.414;2023-05-07T00:14:00;15.30;99.90
3051;DHT22;1535;51.098;6.414;2023-05-07T00:16:27;15.30;99.90
3051;DHT22;1535;51.098;6.414;2023-05-07T00:18:54;15.30;99.90
3051;DHT22;1535;51.098;6.414;2023-05-07T00:21:21;15.30;99.90
3051;DHT22;1535;51.098;6.414;2023-05-07T00:23:53;15.20;99.90
3051;DHT22;1535;51.098;6.414;2023-05-07T00:26:21;15.20;99.90
3051;DHT22;1535;51.098;6.414;2023-05-07T00:28:48;15.10;99.90
3051;DHT22;1535;51.098;6.414;2023-05-07T00:31:16;15.10;99.90
3051;DHT22;1535;51.098;6.414;2023-05-07T00:33:43;15.20;99.90
3051;DHT22;1535;51.098;6.414;2023-05-07T00:36:10;15.20;99.90
3051;DHT22;1535;51.098;6.414;2023-05-07T00:38:38;15.20;99.90
3051;DHT22;1535;51.098;6.414;2023-05-07T00:41:06;15.20;99.90
3051;DHT22;1535;51.098;6.414;2023-05-07T00:43:33;15.20;99.90
3051;DHT22;1535;51.098;6.414;2023-05-07T00:46:01;15.20;99.90
3051;DHT22;1535;51.098;6.414;2023-05-07T00:48:30;15.20;99.90
3051;DHT22;1535;51.098;6.414;2023-05-07T00:50:58;15.10;99.90
3051;DHT22;1535;51.098;6.414;2023-05-07T00:53:25;15.20;99.90
3051;DHT22;1535;51.098;6.414;2023-05-07T00:55:52;15.20;99.90
3051;DHT22;1535;51.098;6.414;2023-05-07T00:58:21;15.20;99.90
3051;DHT22;1535;51.098;6.414;2023-05-07T01:00:48;15.20;99.90
3051;DHT22;1535;51.098;6.414;2023-05-07T01:03:15;15.30;99.90
3051;DHT22;1535;51.098;6.414;2023-05-07T01:05:43;15.30;99.90
3051;DHT22;1535;51.098;6.414;2023-05-07T01:08:13;15.40;99.90
3051;DHT22;1535;51.098;6.414;2023-05-07T01:10:41;15.30;99.90
3051;DHT22;1535;51.098;6.414;2023-05-07T01:13:08;15.20;99.90
3051;DHT22;1535;51.098;6.414;2023-05-07T01:15:37;15.10;99.90
3051;DHT22;1535;51.098;6.414;2023-05-07T01:18:06;15.00;99.90
3051;DHT22;1535;51.098;6.414;2023-05-07T01:20:33;15.00;99.90
3051;DHT22;1535;51.098;6.414;2023-05-07T01:23:03;15.00;99.90
3051;DHT22;1535;51.098;6.414;2023-05-07T01:25:31;15.00;99.90
3051;DHT22;1535;51.098;6.414;2023-05-07T01:27:59;15.10;99.90
3051;DHT22;1535;51.098;6.414;2023-05-07T01:30:27;15.10;99.90
3051;DHT22;1535;51.098;6.414;2023-05-07T01:32:58;15.10;99.90
3051;DHT22;1535;51.098;6.414;2023-05-07T01:35:32;15.10;99.90
3051;DHT22;1535;51.098;6.414;2023-05-07T01:38:02;15.10;99.90
3051;DHT22;1535;51.098;6.414;2023-05-07T01:40:30;15.10;99.90
3051;DHT22;1535;51.098;6.414;2023-05-07T01:42:57;15.20;99.90
3051;DHT22;1535;51.098;6.414;2023-05-07T01:45:25;15.20;99.90
3051;DHT22;1535;51.098;6.414;2023-05-07T01:47:53;15.20;99.90
3051;DHT22;1535;51.098;6.414;2023-05-07T01:50:20;15.20;99.90
3051;DHT22;1535;51.098;6.414;2023-05-07T01:52:47;15.10;99.90
3051;DHT22;1535;51.098;6.414;2023-05-07T01:55:19;15.10;99.90
3051;DHT22;1535;51.098;6.414;2023-05-07T01:57:46;15.00;99.90
3051;DHT22;1535;51.098;6.414;2023-05-07T02:00:14;15.00;99.90
3051;DHT22;1535;51.098;6.414;2023-05-07T02:02:43;15.00;99.90
3051;DHT22;1535;51.098;6.414;2023-05-07T02:05:10;15.00;99.90
3051;DHT22;1535;51.098;6.414;2023-05-07T02:07:37;15.00;99.90
3051;DHT22;1535;51.098;6.414;2023-05-07T02:10:05;15.00;99.90
3051;DHT22;1535;51.098;6.414;2023-05-07T02:12:34;14.90;99.90
3051;DHT22;1535;51.098;6.414;2023-05-07T02:15:01;14.80;99.90
3051;DHT22;1535;51.098;6.414;2023-05-07T02:17:29;14.80;99.90
3051;DHT22;1535;51.098;6.414;2023-05-07T02:19:59;14.70;99.90
3051;DHT22;1535;51.098;6.414;2023-05-07T02:22:26;14.70;99.90
3051;DHT22;1535;51.098;6.414;2023-05-07T02:24:53;14.60;99.90
3051;DHT22;1535;51.098;6.414;2023-05-07T02:27:20;14.50;99.90
3051;DHT22;1535;51.098;6.414;2023-05-07T02:29:49;14.50;99.90
3051;DHT22;1535;51.098;6.414;2023-05-07T02:32:15;14.50;99.90
3051;DHT22;1535;51.098;6.414;2023-05-07T02:34:42;14.40;99.90
3051;DHT22;1535;51.098;6.414;2023-05-07T02:37:09;14.40;99.90
3051;DHT22;1535;51.098;6.414;2023-05-07T02:39:36;14.40;99.90
3051;DHT22;1535;51.098;6.414;2023-05-07T02:42:04;14.40;99.90
3051;DHT22;1535;51.098;6.414;2023-05-07T02:44:31;14.30;99.90
3051;DHT22;1535;51.098;6.414;2023-05-07T02:46:59;14.40;99.90
3051;DHT22;1535;51.098;6.414;2023-05-07T02:49:26;14.30;99.90
3051;DHT22;1535;51.098;6.414;2023-05-07T02:51:53;14.30;99.90
3051;DHT22;1535;51.098;6.414;2023-05-07T02:54:21;14.30;99.90
3051;DHT22;1535;51.098;6.414;2023-05-07T02:56:49;14.30;99.90
3051;DHT22;1535;51.098;6.414;2023-05-07T02:59:16;14.30;99.90
3051;DHT22;1535;51.098;6.414;2023-05-07T03:01:44;14.30;99.90
3051;DHT22;1535;51.098;6.414;2023-05-07T03:04:12;14.20;99.90
3051;DHT22;1535;51.098;6.414;2023-05-07T03:06:38;14.20;99.90
3051;DHT22;1535;51.098;6.414;2023-05-07T03:09:06;14.20;99.90
3051;DHT22;1535;51.098;6.414;2023-05-07T03:11:34;14.20;99.90
3051;DHT22;1535;51.098;6.414;2023-05-07T03:14:01;14.10;99.90
3051;DHT22;1535;51.098;6.414;2023-05-07T03:16:29;14.10;99.90
3051;DHT22;1535;51.098;6.414;2023-05-07T03:18:58;14.10;99.90
3051;DHT22;1535;51.098;6.414;2023-05-07T03:21:27;14.00;99.90
3051;DHT22;1535;51.098;6.414;2023-05-07T03:23:54;14.00;99.90
3051;DHT22;1535;51.098;6.414;2023-05-07T03:26:21;14.00;99.90
3051;DHT22;1535;51.098;6.414;2023-05-07T03:28:49;14.00;99.90
3051;DHT22;1535;51.098;6.414;2023-05-07T03:31:18;13.90;99.90
3051;DHT22;1535;51.098;6.414;2023-05-07T03:33:51;13.90;99.90
3051;DHT22;1535;51.098;6.414;2023-05-07T03:36:18;13.80;99.90
3051;DHT22;1535;51.098;6.414;2023-05-07T03:38:47;13.80;99.90
3051;DHT22;1535;51.098;6.414;2023-05-07T03:41:14;13.90;99.90
3051;DHT22;1535;51.098;6.414;2023-05-07T03:43:42;13.80;99.90
3051;DHT22;1535;51.098;6.414;2023-05-07T03:46:09;13.80;99.90
3051;DHT22;1535;51.098;6.414;2023-05-07T03:48:35;13.80;99.90
3051;DHT22;1535;51.098;6.414;2023-05-07T03:51:03;13.80;99.90
3051;DHT22;1535;51.098;6.414;2023-05-07T03:53:30;13.70;99.90
3051;DHT22;1535;51.098;6.414;2023-05-07T03:55:59;13.70;99.90
3051;DHT22;1535;51.098;6.414;2023-05-07T03:58:26;13.70;99.90
3051;DHT22;1535;51.098;6.414;2023-05-07T04:00:53;13.70;99.90
3051;DHT22;1535;51.098;6.414;2023-05-07T04:03:21;13.60;99.90
3051;DHT22;1535;51.098;6.414;2023-05-07T04:05:48;13.60;99.90
3051;DHT22;1535;51.098;6.414;2023-05-07T04:08:14;13.60;99.90
3051;DHT22;1535;51.098;6.414;2023-05-07T04:10:42;13.70;99.90
3051;DHT22;1535;51.098;6.414;2023-05-07T04:13:11;13.70;99.90
3051;DHT22;1535;51.098;6.414;2023-05-07T04:15:40;13.90;99.90
3051;DHT22;1535;51.098;6.414;2023-05-07T04:18:07;13.90;99.90
3051;DHT22;1535;51.098;6.414;2023-05-07T04:20:35;13.90;99.90
3051;DHT22;1535;51.098;6.414;2023-05-07T04:23:03;14.00;99.90
3051;DHT22;1535;51.098;6.414;2023-05-07T04:25:31;14.10;99.90
3051;DHT22;1535;51.098;6.414;2023-05-07T04:27:58;14.20;99.90
3051;DHT22;1535;51.098;6.414;2023-05-07T04:30:30;14.20;99.90
3051;DHT22;1535;51.098;6.414;2023-05-07T04:32:57;14.40;99.90
3051;DHT22;1535;51.098;6.414;2023-05-07T04:35:24;14.40;99.90
3051;DHT22;1535;51.098;6.414;2023-05-07T04:37:52;14.40;99.90
3051;DHT22;1535;51.098;6.414;2023-05-07T04:40:18;14.40;99.90
3051;DHT22;1535;51.098;6.414;2023-05-07T04:42:45;14.50;99.90
3051;DHT22;1535;51.098;6.414;2023-05-07T04:45:12;14.50;99.90
3051;DHT22;1535;51.098;6.414;2023-05-07T04:47:40;14.60;99.90
3051;DHT22;1535;51.098;6.414;2023-05-07T04:50:08;14.60;99.90
3051;DHT22;1535;51.098;6.414;2023-05-07T04:52:36;14.70;99.90
3051;DHT22;1535;51.098;6.414;2023-05-07T04:55:04;14.70;99.90
3051;DHT22;1535;51.098;6.414;2023-05-07T04:57:32;14.70;99.90
3051;DHT22;1535;51.098;6.414;2023-05-07T05:00:00;14.80;99.90
3051;DHT22;1535;51.098;6.414;2023-05-07T05:02:28;14.80;99.90
3051;DHT22;1535;51.098;6.414;2023-05-07T05:04:56;14.90;99.90
3051;DHT22;1535;51.098;6.414;2023-05-07T05:07:24;15.00;99.90
3051;DHT22;1535;51.098;6.414;2023-05-07T05:09:51;15.00;99.90
3051;DHT22;1535;51.098;6.414;2023-05-07T05:12:18;15.10;99.90
3051;DHT22;1535;51.098;6.414;2023-05-07T05:14:45;15.20;99.90
3051;DHT22;1535;51.098;6.414;2023-05-07T05:17:15;15.20;99.90
3051;DHT22;1535;51.098;6.414;2023-05-07T05:19:42;15.30;99.90
3051;DHT22;1535;51.098;6.414;2023-05-07T05:22:11;15.20;99.90
3051;DHT22;1535;51.098;6.414;2023-05-07T05:24:40;15.30;99.90
3051;DHT22;1535;51.098;6.414;2023-05-07T05:27:07;15.40;99.90
3051;DHT22;1535;51.098;6.414;2023-05-07T05:29:34;15.50;99.90
3051;DHT22;1535;51.098;6.414;2023-05-07T05:32:01;15.50;99.90
3051;DHT22;1535;51.098;6.414;2023-05-07T05:34:28;15.60;99.90
3051;DHT22;1535;51.098;6.414;2023-05-07T05:36:55;15.60;99.90
3051;DHT22;1535;51.098;6.414;2023-05-07T05:39:26;15.60;99.90
3051;DHT22;1535;51.098;6.414;2023-05-07T05:41:53;15.60;99.90
3051;DHT22;1535;51.098;6.414;2023-05-07T05:44:20;15.70;99.90
3051;DHT22;1535;51.098;6.414;2023-05-07T05:46:47;15.70;99.90
3051;DHT22;1535;51.098;6.414;2023-05-07T05:49:15;15.80;99.90
3051;DHT22;1535;51.098;6.414;2023-05-07T05:51:42;16.00;99.90
3051;DHT22;1535;51.098;6.414;2023-05-07T05:54:10;16.10;99.90
3051;DHT22;1535;51.098;6.414;2023-05-07T05:56:38;16.10;99.90
3051;DHT22;1535;51.098;6.414;2023-05-07T05:59:05;16.30;99.90
3051;DHT22;1535;51.098;6.414;2023-05-07T06:01:32;16.20;99.90
3051;DHT22;1535;51.098;6.414;2023-05-07T06:03:59;16.10;99.90
3051;DHT22;1535;51.098;6.414;2023-05-07T06:06:26;16.10;99.90
3051;DHT22;1535;51.098;6.414;2023-05-07T06:08:54;16.10;99.90
3051;DHT22;1535;51.098;6.414;2023-05-07T06:11:21;16.10;99.90
3051;DHT22;1535;51.098;6.414;2023-05-07T06:13:49;16.20;99.90
3051;DHT22;1535;51.098;6.414;2023-05-07T06:16:16;16.30;99.90
3051;DHT22;1535;51.098;6.414;2023-05-07T06:18:43;16.60;99.90
3051;DHT22;1535;51.098;6.414;2023-05-07T06:21:10;16.80;99.90
3051;DHT22;1535;51.098;6.414;2023-05-07T06:23:38;17.00;99.90
3051;DHT22;1535;51.098;6.414;2023-05-07T06:26:06;17.10;99.90
3051;DHT22;1535;51.098;6.414;2023-05-07T06:28:33;17.00;99.90
3051;DHT22;1535;51.098;6.414;2023-05-07T06:31:12;17.10;99.90
3051;DHT22;1535;51.098;6.414;2023-05-07T06:33:39;17.20;99.90
3051;DHT22;1535;51.098;6.414;2023-05-07T06:36:06;17.40;99.90
3051;DHT22;1535;51.098;6.414;2023-05-07T06:38:33;17.60;99.90
3051;DHT22;1535;51.098;6.414;2023-05-07T06:41:00;17.60;99.90
3051;DHT22;1535;51.098;6.414;2023-05-07T06:43:26;17.70;99.90
3051;DHT22;1535;51.098;6.414;2023-05-07T06:45:54;17.90;99.90
3051;DHT22;1535;51.098;6.414;2023-05-07T06:48:23;18.10;99.90
3051;DHT22;1535;51.098;6.414;2023-05-07T06:50:50;18.20;99.90
3051;DHT22;1535;51.098;6.414;2023-05-07T06:53:17;18.10;99.90
3051;DHT22;1535;51.098;6.414;2023-05-07T06:55:45;18.30;99.90
3051;DHT22;1535;51.098;6.414;2023-05-07T06:58:13;18.30;99.90
3051;DHT22;1535;51.098;6.414;2023-05-07T07:00:39;18.50;99.90
3051;DHT22;1535;51.098;6.414;2023-05-07T07:03:06;18.50;99.90
3051;DHT22;1535;51.098;6.414;2023-05-07T07:05:36;18.70;99.90
3051;DHT22;1535;51.098;6.414;2023-05-07T07:08:03;18.90;99.90
3051;DHT22;1535;51.098;6.414;2023-05-07T07:10:30;19.20;99.90
3051;DHT22;1535;51.098;6.414;2023-05-07T07:12:57;19.30;99.90
3051;DHT22;1535;51.098;6.414;2023-05-07T07:15:24;19.50;99.90
3051;DHT22;1535;51.098;6.414;2023-05-07T07:17:51;19.80;99.90
3051;DHT22;1535;51.098;6.414;2023-05-07T07:20:19;20.00;99.90
3051;DHT22;1535;51.098;6.414;2023-05-07T07:22:50;20.20;99.90
3051;DHT22;1535;51.098;6.414;2023-05-07T07:25:17;20.60;99.90
3051;DHT22;1535;51.098;6.414;2023-05-07T07:27:44;20.50;99.90
3051;DHT22;1535;51.098;6.414;2023-05-07T07:30:11;20.80;99.90
3051;DHT22;1535;51.098;6.414;2023-05-07T07:32:39;20.90;99.90
3051;DHT22;1535;51.098;6.414;2023-05-07T07:35:07;21.10;99.90
3051;DHT22;1535;51.098;6.414;2023-05-07T07:37:35;21.00;99.90
3051;DHT22;1535;51.098;6.414;2023-05-07T07:40:04;20.90;99.90
3051;DHT22;1535;51.098;6.414;2023-05-07T07:42:31;21.10;99.90
3051;DHT22;1535;51.098;6.414;2023-05-07T07:44:58;21.50;99.90
3051;DHT22;1535;51.098;6.414;2023-05-07T07:47:26;21.70;99.90
3051;DHT22;1535;51.098;6.414;2023-05-07T07:49:53;22.00;99.90
3051;DHT22;1535;51.098;6.414;2023-05-07T07:52:20;22.10;99.90
3051;DHT22;1535;51.098;6.414;2023-05-07T07:54:47;22.00;99.90
3051;DHT22;1535;51.098;6.414;2023-05-07T07:57:15;22.10;99.90
3051;DHT22;1535;51.098;6.414;2023-05-07T07:59:42;22.40;99.90
3051;DHT22;1535;51.098;6.414;2023-05-07T08:02:09;22.80;99.90
3051;DHT22;1535;51.098;6.414;2023-05-07T08:04:36;22.90;99.90
3051;DHT22;1535;51.098;6.414;2023-05-07T08:07:03;23.10;99.90
3051;DHT22;1535;51.098;6.414;2023-05-07T08:09:30;23.20;99.90
3051;DHT22;1535;51.098;6.414;2023-05-07T08:11:57;23.20;99.90
3051;DHT22;1535;51.098;6.414;2023-05-07T08:14:25;23.20;99.90
3051;DHT22;1535;51.098;6.414;2023-05-07T08:16:53;23.70;99.90
3051;DHT22;1535;51.098;6.414;2023-05-07T08:19:20;23.90;99.90
3051;DHT22;1535;51.098;6.414;2023-05-07T08:21:47;24.10;99.90
3051;DHT22;1535;51.098;6.414;2023-05-07T08:24:14;24.20;99.90
3051;DHT22;1535;51.098;6.414;2023-05-07T08:26:42;24.10;99.90
3051;DHT22;1535;51.098;6.414;2023-05-07T08:29:10;24.60;99.90
3051;DHT22;1535;51.098;6.414;2023-05-07T08:31:38;25.10;99.90
3051;DHT22;1535;51.098;6.414;2023-05-07T08:34:06;25.30;99.90
3051;DHT22;1535;51.098;6.414;2023-05-07T08:36:33;25.90;99.90
3051;DHT22;1535;51.098;6.414;2023-05-07T08:39:00;26.30;99.90
3051;DHT22;1535;51.098;6.414;2023-05-07T08:41:29;26.20;99.90
3051;DHT22;1535;51.098;6.414;2023-05-07T08:43:58;26.00;99.90
3051;DHT22;1535;51.098;6.414;2023-05-07T08:46:30;25.90;99.90
3051;DHT22;1535;51.098;6.414;2023-05-07T08:49:00;26.10;99.90
3051;DHT22;1535;51.098;6.414;2023-05-07T08:51:27;25.70;99.90
3051;DHT22;1535;51.098;6.414;2023-05-07T08:53:56;25.60;99.90
3051;DHT22;1535;51.098;6.414;2023-05-07T08:56:23;25.40;99.90
3051;DHT22;1535;51.098;6.414;2023-05-07T08:58:51;25.40;99.90
3051;DHT22;1535;51.098;6.414;2023-05-07T09:01:22;25.60;99.90
3051;DHT22;1535;51.098;6.414;2023-05-07T09:03:50;25.70;99.90
3051;DHT22;1535;51.098;6.414;2023-05-07T09:06:19;25.80;99.90
3051;DHT22;1535;51.098;6.414;2023-05-07T09:08:50;26.30;99.90
3051;DHT22;1535;51.098;6.414;2023-05-07T09:11:20;26.70;99.90
3051;DHT22;1535;51.098;6.414;2023-05-07T09:13:48;27.30;99.90
3051;DHT22;1535;51.098;6.414;2023-05-07T09:16:16;27.30;99.90
3051;DHT22;1535;51.098;6.414;2023-05-07T09:18:43;27.10;99.90
3051;DHT22;1535;51.098;6.414;2023-05-07T09:21:11;26.90;99.90
3051;DHT22;1535;51.098;6.414;2023-05-07T09:23:39;26.90;99.90
3051;DHT22;1535;51.098;6.414;2023-05-07T09:26:06;27.20;99.90
3051;DHT22;1535;51.098;6.414;2023-05-07T09:28:38;27.50;99.90
3051;DHT22;1535;51.098;6.414;2023-05-07T09:31:06;27.80;99.90
3051;DHT22;1535;51.098;6.414;2023-05-07T09:33:34;27.90;99.90
3051;DHT22;1535;51.098;6.414;2023-05-07T09:36:05;28.30;99.90
3051;DHT22;1535;51.098;6.414;2023-05-07T09:38:32;28.40;99.90
3051;DHT22;1535;51.098;6.414;2023-05-07T09:41:05;28.30;99.90
3051;DHT22;1535;51.098;6.414;2023-05-07T09:43:32;28.30;99.90
3051;DHT22;1535;51.098;6.414;2023-05-07T09:46:02;28.60;99.90
3051;DHT22;1535;51.098;6.414;2023-05-07T09:48:30;28.60;99.90
3051;DHT22;1535;51.098;6.414;2023-05-07T09:51:02;29.10;99.90
3051;DHT22;1535;51.098;6.414;2023-05-07T09:53:30;28.70;99.90
3051;DHT22;1535;51.098;6.414;2023-05-07T09:55:58;28.70;99.90
3051;DHT22;1535;51.098;6.414;2023-05-07T09:58:27;27.60;99.90
3051;DHT22;1535;51.098;6.414;2023-05-07T10:00:55;27.90;99.90
3051;DHT22;1535;51.098;6.414;2023-05-07T10:03:24;27.90;99.90
3051;DHT22;1535;51.098;6.414;2023-05-07T10:05:54;27.80;99.90
3051;DHT22;1535;51.098;6.414;2023-05-07T10:08:22;27.90;99.90
3051;DHT22;1535;51.098;6.414;2023-05-07T10:10:49;28.00;99.90
3051;DHT22;1535;51.098;6.414;2023-05-07T10:13:17;28.00;99.90
3051;DHT22;1535;51.098;6.414;2023-05-07T10:15:48;27.60;99.90
3051;DHT22;1535;51.098;6.414;2023-05-07T10:18:15;27.40;99.90
3051;DHT22;1535;51.098;6.414;2023-05-07T10:20:43;27.30;99.90
3051;DHT22;1535;51.098;6.414;2023-05-07T10:23:14;26.80;99.90
3051;DHT22;1535;51.098;6.414;2023-05-07T10:25:44;26.80;99.90
3051;DHT22;1535;51.098;6.414;2023-05-07T10:28:11;27.50;99.90
3051;DHT22;1535;51.098;6.414;2023-05-07T10:30:48;27.50;99.90
3051;DHT22;1535;51.098;6.414;2023-05-07T10:33:23;27.10;99.90
3051;DHT22;1535;51.098;6.414;2023-05-07T10:35:51;26.80;99.90
3051;DHT22;1535;51.098;6.414;2023-05-07T10:38:23;27.10;99.90
3051;DHT22;1535;51.098;6.414;2023-05-07T10:40:50;26.90;99.90
3051;DHT22;1535;51.098;6.414;2023-05-07T10:43:18;26.80;99.90
3051;DHT22;1535;51.098;6.414;2023-05-07T10:46:10;26.70;99.90
3051;DHT22;1535;51.098;6.414;2023-05-07T10:51:35;27.20;99.90
3051;DHT22;1535;51.098;6.414;2023-05-07T10:54:21;27.50;99.90
3051;DHT22;1535;51.098;6.414;2023-05-07T10:56:48;27.60;99.90
3051;DHT22;1535;51.098;6.414;2023-05-07T10:59:35;27.00;99.90
3051;DHT22;1535;51.098;6.414;2023-05-07T11:02:09;27.20;99.90
3051;DHT22;1535;51.098;6.414;2023-05-07T11:04:40;27.10;99.90
3051;DHT22;1535;51.098;6.414;2023-05-07T11:07:24;27.20;99.90
3051;DHT22;1535;51.098;6.414;2023-05-07T11:10:05;27.40;99.90
3051;DHT22;1535;51.098;6.414;2023-05-07T11:12:55;27.80;99.90
3051;DHT22;1535;51.098;6.414;2023-05-07T11:15:41;27.60;99.90
3051;DHT22;1535;51.098;6.414;2023-05-07T11:18:12;27.20;99.90
3051;DHT22;1535;51.098;6.414;2023-05-07T11:20:46;27.30;99.90
3051;DHT22;1535;51.098;6.414;2023-05-07T11:23:55;27.60;99.90
3051;DHT22;1535;51.098;6.414;2023-05-07T11:26:23;27.10;99.90
3051;DHT22;1535;51.098;6.414;2023-05-07T11:28:51;27.10;99.90
3051;DHT22;1535;51.098;6.414;2023-05-07T11:31:21;27.50;99.90
3051;DHT22;1535;51.098;6.414;2023-05-07T11:33:51;27.40;99.90
3051;DHT22;1535;51.098;6.414;2023-05-07T11:36:18;27.50;99.90
3051;DHT22;1535;51.098;6.414;2023-05-07T11:38:46;27.70;99.90
3051;DHT22;1535;51.098;6.414;2023-05-07T11:41:13;27.30;99.90
3051;DHT22;1535;51.098;6.414;2023-05-07T11:43:54;27.00;99.90
3051;DHT22;1535;51.098;6.414;2023-05-07T11:46:22;27.00;99.90
3051;DHT22;1535;51.098;6.414;2023-05-07T11:48:50;27.00;99.90
3051;DHT22;1535;51.098;6.414;2023-05-07T11:51:21;27.20;99.90
3051;DHT22;1535;51.098;6.414;2023-05-07T11:53:48;27.00;99.90
3051;DHT22;1535;51.098;6.414;2023-05-07T11:56:16;27.00;99.90
3051;DHT22;1535;51.098;6.414;2023-05-07T11:58:44;26.80;99.90
3051;DHT22;1535;51.098;6.414;2023-05-07T12:01:13;26.50;99.90
3051;DHT22;1535;51.098;6.414;2023-05-07T12:03:41;26.10;99.90
3051;DHT22;1535;51.098;6.414;2023-05-07T12:06:11;26.20;99.90
3051;DHT22;1535;51.098;6.414;2023-05-07T12:08:39;26.50;99.90
3051;DHT22;1535;51.098;6.414;2023-05-07T12:11:11;26.30;99.90
3051;DHT22;1535;51.098;6.414;2023-05-07T12:13:38;26.10;99.90
3051;DHT22;1535;51.098;6.414;2023-05-07T12:16:06;25.80;99.90
3051;DHT22;1535;51.098;6.414;2023-05-07T12:18:37;25.80;99.90
3051;DHT22;1535;51.098;6.414;2023-05-07T12:21:05;25.90;99.90
3051;DHT22;1535;51.098;6.414;2023-05-07T12:23:35;25.70;99.90
3051;DHT22;1535;51.098;6.414;2023-05-07T12:26:04;25.30;99.90
3051;DHT22;1535;51.098;6.414;2023-05-07T12:28:36;25.10;99.90
3051;DHT22;1535;51.098;6.414;2023-05-07T12:31:05;25.10;99.90
3051;DHT22;1535;51.098;6.414;2023-05-07T12:33:32;25.10;99.90
3051;DHT22;1535;51.098;6.414;2023-05-07T12:36:03;25.10;99.90
3051;DHT22;1535;51.098;6.414;2023-05-07T12:38:37;25.20;99.90
3051;DHT22;1535;51.098;6.414;2023-05-07T12:41:05;24.90;99.90
3051;DHT22;1535;51.098;6.414;2023-05-07T12:43:32;24.90;99.90
3051;DHT22;1535;51.098;6.414;2023-05-07T12:46:01;25.10;99.90
3051;DHT22;1535;51.098;6.414;2023-05-07T12:48:29;25.10;99.90
3051;DHT22;1535;51.098;6.414;2023-05-07T12:50:57;25.20;99.90
3051;DHT22;1535;51.098;6.414;2023-05-07T12:53:25;25.60;99.90
3051;DHT22;1535;51.098;6.414;2023-05-07T12:55:55;26.00;99.90
3051;DHT22;1535;51.098;6.414;2023-05-07T12:58:25;26.70;99.90
3051;DHT22;1535;51.098;6.414;2023-05-07T13:00:54;26.50;99.90
3051;DHT22;1535;51.098;6.414;2023-05-07T13:03:25;26.80;99.90
3051;DHT22;1535;51.098;6.414;2023-05-07T13:05:54;26.50;99.90
3051;DHT22;1535;51.098;6.414;2023-05-07T13:08:29;26.00;99.90
3051;DHT22;1535;51.098;6.414;2023-05-07T13:11:01;25.40;99.90
3051;DHT22;1535;51.098;6.414;2023-05-07T13:13:29;25.10;99.90
3051;DHT22;1535;51.098;6.414;2023-05-07T13:15:57;25.00;99.90
3051;DHT22;1535;51.098;6.414;2023-05-07T13:18:24;24.90;99.90
3051;DHT22;1535;51.098;6.414;2023-05-07T13:20:52;24.50;99.90
3051;DHT22;1535;51.098;6.414;2023-05-07T13:23:19;24.10;99.90
3051;DHT22;1535;51.098;6.414;2023-05-07T13:25:46;23.90;99.90
3051;DHT22;1535;51.098;6.414;2023-05-07T13:28:14;23.40;99.90
3051;DHT22;1535;51.098;6.414;2023-05-07T13:30:41;23.00;99.90
3051;DHT22;1535;51.098;6.414;2023-05-07T13:33:08;22.90;99.90
3051;DHT22;1535;51.098;6.414;2023-05-07T13:35:36;22.70;99.90
3051;DHT22;1535;51.098;6.414;2023-05-07T13:38:03;22.50;99.90
3051;DHT22;1535;51.098;6.414;2023-05-07T13:40:31;20.70;99.90
3051;DHT22;1535;51.098;6.414;2023-05-07T13:42:59;18.90;99.90
3051;DHT22;1535;51.098;6.414;2023-05-07T13:45:30;18.00;99.90
3051;DHT22;1535;51.098;6.414;2023-05-07T13:47:57;17.40;99.90
3051;DHT22;1535;51.098;6.414;2023-05-07T13:50:25;17.10;99.90
3051;DHT22;1535;51.098;6.414;2023-05-07T13:52:54;16.90;99.90
3051;DHT22;1535;51.098;6.414;2023-05-07T13:55:23;16.60;99.90
3051;DHT22;1535;51.098;6.414;2023-05-07T13:57:55;16.40;99.90
3051;DHT22;1535;51.098;6.414;2023-05-07T14:00:22;16.30;99.90
3051;DHT22;1535;51.098;6.414;2023-05-07T14:02:51;16.20;99.90
3051;DHT22;1535;51.098;6.414;2023-05-07T14:05:18;16.10;99.90
3051;DHT22;1535;51.098;6.414;2023-05-07T14:07:45;16.00;99.90
3051;DHT22;1535;51.098;6.414;2023-05-07T14:10:13;15.90;99.90
3051;DHT22;1535;51.098;6.414;2023-05-07T14:12:40;15.90;99.90
3051;DHT22;1535;51.098;6.414;2023-05-07T14:15:08;15.90;99.90
3051;DHT22;1535;51.098;6.414;2023-05-07T14:17:35;15.80;99.90
3051;DHT22;1535;51.098;6.414;2023-05-07T14:20:05;15.90;99.90
3051;DHT22;1535;51.098;6.414;2023-05-07T14:22:32;15.90;99.90
3051;DHT22;1535;51.098;6.414;2023-05-07T14:25:00;16.00;99.90
3051;DHT22;1535;51.098;6.414;2023-05-07T14:27:27;16.00;99.90
3051;DHT22;1535;51.098;6.414;2023-05-07T14:29:54;16.10;99.90
3051;DHT22;1535;51.098;6.414;2023-05-07T14:32:22;16.30;99.90
3051;DHT22;1535;51.098;6.414;2023-05-07T14:34:50;16.40;99.90
3051;DHT22;1535;51.098;6.414;2023-05-07T14:37:19;16.60;99.90
3051;DHT22;1535;51.098;6.414;2023-05-07T14:39:46;16.60;99.90
3051;DHT22;1535;51.098;6.414;2023-05-07T14:42:14;16.70;99.90
3051;DHT22;1535;51.098;6.414;2023-05-07T14:44:40;16.80;99.90
3051;DHT22;1535;51.098;6.414;2023-05-07T14:47:08;16.90;99.90
3051;DHT22;1535;51.098;6.414;2023-05-07T14:49:36;17.10;99.90
3051;DHT22;1535;51.098;6.414;2023-05-07T14:52:03;17.30;99.90
3051;DHT22;1535;51.098;6.414;2023-05-07T14:54:33;17.30;99.90
3051;DHT22;1535;51.098;6.414;2023-05-07T14:57:01;17.30;99.90
3051;DHT22;1535;51.098;6.414;2023-05-07T14:59:27;17.40;99.90
3051;DHT22;1535;51.098;6.414;2023-05-07T15:01:54;17.40;99.90
3051;DHT22;1535;51.098;6.414;2023-05-07T15:04:21;17.60;99.90
3051;DHT22;1535;51.098;6.414;2023-05-07T15:06:48;17.60;99.90
3051;DHT22;1535;51.098;6.414;2023-05-07T15:09:15;17.70;99.90
3051;DHT22;1535;51.098;6.414;2023-05-07T15:11:43;17.90;99.90
3051;DHT22;1535;51.098;6.414;2023-05-07T15:14:10;18.10;99.90
3051;DHT22;1535;51.098;6.414;2023-05-07T15:16:36;18.20;99.90
3051;DHT22;1535;51.098;6.414;2023-05-07T15:19:05;18.40;99.90
3051;DHT22;1535;51.098;6.414;2023-05-07T15:21:32;18.50;99.90
3051;DHT22;1535;51.098;6.414;2023-05-07T15:24:00;18.50;99.90
3051;DHT22;1535;51.098;6.414;2023-05-07T15:26:26;18.70;99.90
3051;DHT22;1535;51.098;6.414;2023-05-07T15:28:54;18.90;99.90
3051;DHT22;1535;51.098;6.414;2023-05-07T15:31:23;19.10;99.90
3051;DHT22;1535;51.098;6.414;2023-05-07T15:33:50;19.30;99.90
3051;DHT22;1535;51.098;6.414;2023-05-07T15:36:17;19.60;99.90
3051;DHT22;1535;51.098;6.414;2023-05-07T15:38:44;19.60;99.90
3051;DHT22;1535;51.098;6.414;2023-05-07T15:41:11;19.70;99.90
3051;DHT22;1535;51.098;6.414;2023-05-07T15:43:44;19.80;99.90
3051;DHT22;1535;51.098;6.414;2023-05-07T15:46:17;19.80;99.90
3051;DHT22;1535;51.098;6.414;2023-05-07T15:48:44;19.70;99.90
3051;DHT22;1535;51.098;6.414;2023-05-07T15:51:12;19.50;99.90
3051;DHT22;1535;51.098;6.414;2023-05-07T15:53:39;19.60;99.90
3051;DHT22;1535;51.098;6.414;2023-05-07T15:56:06;19.60;99.90
3051;DHT22;1535;51.098;6.414;2023-05-07T15:58:33;19.70;99.90
3051;DHT22;1535;51.098;6.414;2023-05-07T16:01:01;19.70;99.90
3051;DHT22;1535;51.098;6.414;2023-05-07T16:03:31;19.70;99.90
3051;DHT22;1535;51.098;6.414;2023-05-07T16:05:58;19.80;99.90
3051;DHT22;1535;51.098;6.414;2023-05-07T16:08:26;19.90;99.90
3051;DHT22;1535;51.098;6.414;2023-05-07T16:10:53;19.90;99.90
3051;DHT22;1535;51.098;6.414;2023-05-07T16:13:20;20.00;99.90